createdAt,value
2023-03-21T00:01:54.430Z,19.27
2023-03-21T00:04:28.390Z,19.63
2023-03-21T00:06:56.828Z,17.65
2023-03-21T00:09:24.278Z,17.63
2023-03-21T00:11:51.279Z,18.23
2023-03-21T00:14:21.323Z,18.40
2023-03-21T00:16:52.254Z,19.35
2023-03-21T00:19:21.118Z,18.58
2023-03-21T00:22:08.712Z,18.85
2023-03-21T00:24:39.416Z,18.38
2023-03-21T00:27:43.048Z,18.92
2023-03-21T00:29:54.774Z,19.48
2023-03-21T00:32:22.324Z,19.63
2023-03-21T00:35:38.297Z,19.60
2023-03-21T00:37:37.473Z,21.70
2023-03-21T00:40:27.836Z,21.35
2023-03-21T00:42:58.394Z,19.67
2023-03-21T00:45:25.465Z,21.25
2023-03-21T00:47:52.667Z,21.63
2023-03-21T00:50:19.779Z,22.27
2023-03-21T00:52:46.869Z,22.33
2023-03-21T00:55:16.224Z,20.63
2023-03-21T00:57:47.571Z,21.40
2023-03-21T01:00:18.971Z,22.02
2023-03-21T01:03:02.551Z,20.63
2023-03-21T01:05:55.767Z,21.52
2023-03-21T01:08:28.199Z,21.17
2023-03-21T01:11:02.530Z,20.83
2023-03-21T01:13:29.942Z,20.45
2023-03-21T01:15:57.555Z,22.73
2023-03-21T01:18:27.334Z,21.60
2023-03-21T01:20:57.959Z,22.98
2023-03-21T01:23:26.212Z,22.42
2023-03-21T01:25:54.566Z,23.48
2023-03-21T01:28:22.421Z,23.27
2023-03-21T01:30:51.485Z,22.75
2023-03-21T01:33:20.516Z,21.13
2023-03-21T01:35:53.458Z,23.83
2023-03-21T01:38:27.822Z,23.50
2023-03-21T01:40:54.901Z,23.52
2023-03-21T01:43:26.094Z,22.92
2023-03-21T01:46:21.394Z,22.30
2023-03-21T01:48:58.206Z,22.20
2023-03-21T01:51:27.432Z,24.00
2023-03-21T01:53:55.970Z,24.30
2023-03-21T01:56:31.012Z,25.27
2023-03-21T01:59:17.472Z,22.63
2023-03-21T02:01:45.928Z,23.17
2023-03-21T02:04:13.111Z,23.95
2023-03-21T02:06:54.476Z,24.17
2023-03-21T02:09:25.420Z,22.23
2023-03-21T02:11:54.966Z,25.07
2023-03-21T02:14:29.074Z,24.05
2023-03-21T02:17:15.033Z,23.02
2023-03-21T02:20:09.487Z,23.95
2023-03-21T02:22:46.530Z,25.00
2023-03-21T02:25:22.680Z,24.55
2023-03-21T02:27:59.086Z,25.25
2023-03-21T02:30:49.186Z,26.45
2023-03-21T02:33:36.398Z,25.10
2023-03-21T02:36:15.082Z,24.35
2023-03-21T02:39:04.583Z,24.45
2023-03-21T02:41:53.580Z,25.90
2023-03-21T02:44:23.457Z,24.85
2023-03-21T02:47:06.281Z,25.35
2023-03-21T02:50:02.224Z,25.58
2023-03-21T02:52:38.996Z,23.13
2023-03-21T02:55:13.918Z,25.67
2023-03-21T02:57:44.090Z,26.60
2023-03-21T03:00:17.980Z,26.38
2023-03-21T03:02:45.221Z,24.85
2023-03-21T03:05:22.143Z,28.08
2023-03-21T03:07:55.351Z,24.70
2023-03-21T03:10:34.580Z,27.33
2023-03-21T03:13:22.983Z,27.42
2023-03-21T03:16:15.558Z,28.45
2023-03-21T03:19:01.176Z,27.85
2023-03-21T03:21:42.330Z,26.88
2023-03-21T03:24:20.582Z,26.90
2023-03-21T03:26:54.322Z,28.38
2023-03-21T03:29:22.707Z,28.75
2023-03-21T03:32:03.901Z,28.20
2023-03-21T03:34:39.488Z,27.48
2023-03-21T03:37:11.212Z,29.00
2023-03-21T03:42:34.687Z,26.75
2023-03-21T03:45:04.072Z,29.33
2023-03-21T03:47:39.901Z,30.40
2023-03-21T03:50:53.886Z,27.88
2023-03-21T03:53:26.488Z,28.98
2023-03-21T03:55:55.870Z,26.58
2023-03-21T03:58:36.148Z,30.33
2023-03-21T04:01:10.991Z,29.58
2023-03-21T04:03:48.831Z,27.65
2023-03-21T04:06:18.468Z,30.55
2023-03-21T04:08:46.004Z,29.95
2023-03-21T04:11:16.324Z,30.55
2023-03-21T04:13:43.790Z,31.17
2023-03-21T04:16:14.294Z,30.73
2023-03-21T04:18:41.863Z,29.05
2023-03-21T04:21:13.305Z,33.10
2023-03-21T04:23:41.488Z,31.85
2023-03-21T04:26:08.885Z,29.70
2023-03-21T04:28:37.206Z,31.35
2023-03-21T04:31:24.205Z,29.55
2023-03-21T04:33:52.523Z,31.45
2023-03-21T04:36:30.711Z,30.15
2023-03-21T04:39:01.718Z,30.20
2023-03-21T04:41:29.224Z,31.80
2023-03-21T04:43:56.576Z,31.58
2023-03-21T04:46:24.061Z,31.10
2023-03-21T04:48:51.383Z,31.42
2023-03-21T04:51:18.804Z,32.28
2023-03-21T04:53:49.251Z,29.85
2023-03-21T04:56:16.442Z,31.40
2023-03-21T04:58:43.725Z,31.63
2023-03-21T05:01:14.521Z,32.88
2023-03-21T05:03:41.731Z,32.37
2023-03-21T05:06:10.003Z,29.63
2023-03-21T05:08:37.271Z,32.83
2023-03-21T05:11:04.601Z,34.13
2023-03-21T05:13:31.619Z,30.52
2023-03-21T05:15:58.637Z,30.75
2023-03-21T05:18:26.202Z,34.47
2023-03-21T05:20:54.233Z,32.30
2023-03-21T05:23:22.780Z,32.95
2023-03-21T05:25:50.205Z,33.45
2023-03-21T05:28:21.010Z,31.40
2023-03-21T05:30:48.200Z,34.30
2023-03-21T05:33:15.305Z,33.42
2023-03-21T05:35:42.922Z,33.38
2023-03-21T05:38:10.171Z,35.10
2023-03-21T05:40:37.184Z,38.58
2023-03-21T05:43:04.250Z,35.20
2023-03-21T05:45:31.262Z,34.17
2023-03-21T05:47:58.369Z,36.30
2023-03-21T05:50:25.568Z,34.85
2023-03-21T05:52:52.614Z,35.97
2023-03-21T05:55:19.628Z,35.45
2023-03-21T05:57:46.768Z,35.60
2023-03-21T06:00:15.301Z,37.63
2023-03-21T06:02:42.957Z,35.95
2023-03-21T06:05:10.671Z,37.00
2023-03-21T06:07:37.765Z,37.30
2023-03-21T06:10:05.682Z,38.67
2023-03-21T06:12:33.027Z,35.92
2023-03-21T06:15:01.515Z,39.47
2023-03-21T06:17:28.604Z,37.63
2023-03-21T06:19:55.735Z,37.50
2023-03-21T06:22:22.970Z,37.75
2023-03-21T06:24:50.274Z,38.22
2023-03-21T06:27:17.306Z,35.83
2023-03-21T06:29:46.073Z,37.85
2023-03-21T06:32:13.322Z,37.30
2023-03-21T06:34:40.551Z,41.05
2023-03-21T06:37:07.554Z,40.35
2023-03-21T06:39:35.172Z,38.80
2023-03-21T06:42:03.120Z,39.13
2023-03-21T06:44:30.223Z,37.63
2023-03-21T06:46:57.487Z,40.53
2023-03-21T06:49:24.813Z,40.58
2023-03-21T06:51:51.840Z,40.28
2023-03-21T06:54:19.586Z,41.25
2023-03-21T06:56:47.254Z,40.55
2023-03-21T06:59:14.621Z,43.13
2023-03-21T07:01:42.899Z,44.45
2023-03-21T07:04:10.786Z,44.05
2023-03-21T07:06:38.210Z,44.08
2023-03-21T07:09:06.169Z,39.20
2023-03-21T07:11:33.234Z,38.17
2023-03-21T07:14:00.626Z,41.38
2023-03-21T07:16:27.888Z,37.67
2023-03-21T07:18:55.588Z,37.83
2023-03-21T07:21:22.877Z,38.10
2023-03-21T07:23:50.636Z,35.45
2023-03-21T07:26:18.527Z,36.95
2023-03-21T07:28:45.778Z,39.17
2023-03-21T07:31:15.897Z,41.17
2023-03-21T07:33:42.985Z,38.08
2023-03-21T07:36:15.368Z,36.30
2023-03-21T07:38:45.970Z,44.78
2023-03-21T07:41:13.693Z,45.42
2023-03-21T07:43:40.865Z,34.97
2023-03-21T07:46:08.233Z,42.30
2023-03-21T07:48:35.473Z,38.28
2023-03-21T07:51:02.904Z,42.10
2023-03-21T07:53:29.918Z,38.15
2023-03-21T07:55:56.973Z,36.38
2023-03-21T07:58:25.641Z,34.80
2023-03-21T08:00:53.637Z,34.17
2023-03-21T08:03:21.272Z,32.58
2023-03-21T08:05:48.378Z,35.30
2023-03-21T08:08:15.653Z,36.80
2023-03-21T08:10:44.264Z,34.78
2023-03-21T08:13:12.915Z,31.83
2023-03-21T08:15:42.332Z,35.22
2023-03-21T08:18:10.855Z,32.22
2023-03-21T08:20:38.276Z,32.80
2023-03-21T08:23:05.478Z,34.35
2023-03-21T08:25:33.481Z,33.40
2023-03-21T08:28:00.792Z,32.72
2023-03-21T08:30:29.343Z,33.03
2023-03-21T08:33:00.812Z,34.13
2023-03-21T08:35:29.616Z,35.00
2023-03-21T08:37:57.312Z,33.53
2023-03-21T08:40:24.556Z,33.88
2023-03-21T08:42:51.926Z,34.95
2023-03-21T08:45:18.992Z,33.35
2023-03-21T08:47:46.978Z,31.90
2023-03-21T08:50:19.972Z,32.05
2023-03-21T08:52:47.913Z,31.35
2023-03-21T08:55:16.374Z,31.48
2023-03-21T08:57:44.040Z,30.02
2023-03-21T09:00:14.380Z,31.63
2023-03-21T09:02:42.405Z,30.52
2023-03-21T09:05:12.388Z,30.00
2023-03-21T09:07:40.921Z,28.33
2023-03-21T09:10:26.950Z,29.05
2023-03-21T09:12:55.454Z,28.65
2023-03-21T09:15:25.233Z,29.00
2023-03-21T09:17:54.176Z,52.55
2023-03-21T09:20:30.616Z,32.42
2023-03-21T09:22:59.157Z,34.45
2023-03-21T09:25:32.908Z,35.03
2023-03-21T09:28:01.392Z,29.45
2023-03-21T09:30:29.567Z,29.55
2023-03-21T09:32:56.933Z,32.40
2023-03-21T09:35:25.106Z,29.25
2023-03-21T09:37:52.502Z,31.38
2023-03-21T09:40:31.585Z,40.40
2023-03-21T09:43:13.932Z,25.98
2023-03-21T09:45:52.712Z,34.40
2023-03-21T09:48:39.586Z,25.23
2023-03-21T09:51:15.977Z,24.17
2023-03-21T09:53:47.843Z,39.13
2023-03-21T09:56:17.102Z,25.20
2023-03-21T09:58:54.704Z,29.17
2023-03-21T10:01:41.988Z,28.63
2023-03-21T10:04:17.298Z,23.73
2023-03-21T10:06:48.258Z,28.83
2023-03-21T10:09:27.196Z,48.67
2023-03-21T10:12:00.956Z,26.00
2023-03-21T10:14:50.068Z,28.70
2023-03-21T10:17:33.970Z,24.83
2023-03-21T10:20:18.305Z,20.23
2023-03-21T10:22:47.675Z,20.52
2023-03-21T10:25:18.294Z,26.10
2023-03-21T10:27:46.848Z,24.10
2023-03-21T10:30:38.572Z,21.58
2023-03-21T10:33:15.489Z,23.25
2023-03-21T10:35:48.079Z,22.55
2023-03-21T10:38:21.485Z,22.38
2023-03-21T10:40:48.873Z,22.70
2023-03-21T10:43:27.937Z,23.45
2023-03-21T10:45:55.911Z,24.08
2023-03-21T10:48:24.396Z,24.38
2023-03-21T10:50:55.229Z,24.15
2023-03-21T10:53:32.788Z,22.77
2023-03-21T10:56:01.257Z,22.33
2023-03-21T10:58:33.281Z,22.35
2023-03-21T11:01:07.533Z,20.52
2023-03-21T11:03:43.635Z,25.15
2023-03-21T11:06:27.138Z,31.13
2023-03-21T11:08:57.716Z,25.77
2023-03-21T11:11:33.223Z,23.52
2023-03-21T11:14:07.079Z,25.35
2023-03-21T11:16:41.452Z,27.48
2023-03-21T11:19:17.812Z,23.73
2023-03-21T11:21:45.350Z,22.02
2023-03-21T11:24:18.596Z,18.20
2023-03-21T11:26:49.652Z,19.33
2023-03-21T11:29:35.398Z,18.45
2023-03-21T11:32:12.361Z,23.77
2023-03-21T11:34:47.929Z,20.92
2023-03-21T11:37:24.896Z,22.88
2023-03-21T11:40:15.684Z,17.25
2023-03-21T11:42:47.139Z,22.80
2023-03-21T11:47:44.312Z,18.30
2023-03-21T11:50:35.316Z,21.90
2023-03-21T11:53:14.313Z,19.10
2023-03-21T11:55:46.444Z,20.17
2023-03-21T11:58:31.660Z,21.80
2023-03-21T12:01:31.501Z,24.27
2023-03-21T12:04:01.851Z,20.92
2023-03-21T12:06:36.228Z,24.98
2023-03-21T12:09:13.034Z,23.23
2023-03-21T12:12:09.629Z,20.48
2023-03-21T12:14:45.683Z,20.40
2023-03-21T12:17:25.057Z,18.33
2023-03-21T12:20:23.292Z,16.73
2023-03-21T12:23:03.862Z,20.10
2023-03-21T12:26:14.383Z,22.40
2023-03-21T12:29:01.663Z,16.98
2023-03-21T12:31:30.828Z,20.02
2023-03-21T12:34:19.194Z,20.63
2023-03-21T12:37:05.051Z,21.85
2023-03-21T12:39:36.660Z,20.65
2023-03-21T12:42:34.719Z,16.73
2023-03-21T12:45:45.790Z,19.10
2023-03-21T12:48:40.568Z,16.63
2023-03-21T12:51:13.116Z,22.50
2023-03-21T12:54:01.068Z,20.40
2023-03-21T12:57:07.343Z,18.25
2023-03-21T13:00:05.435Z,15.15
2023-03-21T13:02:36.483Z,18.13
2023-03-21T13:05:20.495Z,14.50
2023-03-21T13:07:57.436Z,15.68
2023-03-21T13:10:25.064Z,16.23
2023-03-21T13:12:58.640Z,13.77
2023-03-21T13:15:25.762Z,13.25
2023-03-21T13:18:12.403Z,15.93
2023-03-21T13:20:46.307Z,15.43
2023-03-21T13:23:13.776Z,14.15
2023-03-21T13:25:48.184Z,13.38
2023-03-21T13:28:35.402Z,20.90
2023-03-21T13:31:21.225Z,35.35
2023-03-21T13:33:50.428Z,14.98
2023-03-21T13:36:25.756Z,19.60
2023-03-21T13:38:59.682Z,23.73
2023-03-21T13:41:35.275Z,14.05
2023-03-21T13:44:02.252Z,13.80
2023-03-21T13:46:29.519Z,21.40
2023-03-21T13:49:01.836Z,26.25
2023-03-21T13:54:07.955Z,12.52
2023-03-21T13:56:47.066Z,13.40
2023-03-21T13:59:17.503Z,13.38
2023-03-21T14:02:04.434Z,14.32
2023-03-21T14:04:42.051Z,15.90
2023-03-21T14:07:13.927Z,13.70
2023-03-21T14:09:50.738Z,14.07
2023-03-21T14:12:22.765Z,19.05
2023-03-21T14:15:13.953Z,14.43
2023-03-21T14:17:54.670Z,16.15
2023-03-21T14:20:27.990Z,18.63
2023-03-21T14:22:55.304Z,14.77
2023-03-21T14:25:29.174Z,19.48
2023-03-21T14:28:01.811Z,14.73
2023-03-21T14:30:38.462Z,13.25
2023-03-21T14:33:08.440Z,15.13
2023-03-21T14:35:35.854Z,13.73
2023-03-21T14:38:09.357Z,14.10
2023-03-21T14:40:37.098Z,14.50
2023-03-21T14:43:06.439Z,14.27
2023-03-21T14:45:36.932Z,15.50
2023-03-21T14:48:16.405Z,13.15
2023-03-21T14:50:51.122Z,14.93
2023-03-21T14:53:23.376Z,14.30
2023-03-21T14:55:57.890Z,15.43
2023-03-21T14:58:26.492Z,14.77
2023-03-21T15:00:57.753Z,14.30
2023-03-21T15:03:27.623Z,14.63
2023-03-21T15:05:56.086Z,15.70
2023-03-21T15:08:26.350Z,15.80
2023-03-21T15:11:07.879Z,16.67
2023-03-21T15:13:36.998Z,18.13
2023-03-21T15:16:05.042Z,15.43
2023-03-21T15:18:34.612Z,16.17
2023-03-21T15:21:06.130Z,16.70
2023-03-21T15:23:39.419Z,18.30
2023-03-21T15:26:07.741Z,17.45
2023-03-21T15:28:35.777Z,21.35
2023-03-21T15:31:04.972Z,20.10
2023-03-21T15:33:33.150Z,17.95
2023-03-21T15:36:00.596Z,18.33
2023-03-21T15:38:45.045Z,16.15
2023-03-21T15:41:21.253Z,19.23
2023-03-21T15:44:09.490Z,16.92
2023-03-21T15:46:42.727Z,18.50
2023-03-21T15:49:17.295Z,17.85
2023-03-21T15:52:09.292Z,20.08
2023-03-21T15:57:38.030Z,22.38
2023-03-21T16:00:25.283Z,17.27
2023-03-21T16:03:00.911Z,17.63
2023-03-21T16:05:33.765Z,18.90
2023-03-21T16:08:06.935Z,23.90
2023-03-21T16:10:37.611Z,31.40
2023-03-21T16:13:06.671Z,30.63
2023-03-21T16:15:34.069Z,26.73
2023-03-21T16:18:04.986Z,19.30
2023-03-21T16:20:35.365Z,20.35
2023-03-21T16:23:02.900Z,19.02
2023-03-21T16:25:32.306Z,29.60
2023-03-21T16:27:59.770Z,25.23
2023-03-21T16:30:27.526Z,31.27
2023-03-21T16:32:54.683Z,12.40
2023-03-21T16:35:23.615Z,17.45
2023-03-21T16:37:50.904Z,14.93
2023-03-21T16:40:35.769Z,30.58
2023-03-21T16:43:03.085Z,15.98
2023-03-21T16:45:31.130Z,23.02
2023-03-21T16:47:59.043Z,17.25
2023-03-21T16:50:33.481Z,18.30
2023-03-21T16:53:01.420Z,17.13
2023-03-21T16:55:29.268Z,15.52
2023-03-21T16:57:57.368Z,19.60
2023-03-21T17:00:27.942Z,13.43
2023-03-21T17:02:56.976Z,18.27
2023-03-21T17:05:26.252Z,14.30
2023-03-21T17:07:54.721Z,13.05
2023-03-21T17:10:30.236Z,18.92
2023-03-21T17:12:57.305Z,15.18
2023-03-21T17:15:24.367Z,19.10
2023-03-21T17:17:51.986Z,17.65
2023-03-21T17:20:23.665Z,16.52
2023-03-21T17:25:18.931Z,16.65
2023-03-21T17:27:47.085Z,17.73
2023-03-21T17:30:20.766Z,15.80
2023-03-21T17:32:49.777Z,14.90
2023-03-21T17:35:17.532Z,15.30
2023-03-21T17:37:50.589Z,15.45
2023-03-21T17:40:26.333Z,15.60
2023-03-21T17:42:53.809Z,14.77
2023-03-21T17:45:22.901Z,16.08
2023-03-21T17:47:51.314Z,13.80
2023-03-21T17:50:31.322Z,13.68
2023-03-21T17:52:58.340Z,13.25
2023-03-21T17:55:26.166Z,15.85
2023-03-21T17:57:53.256Z,15.85
2023-03-21T18:00:26.281Z,14.85
2023-03-21T18:02:53.688Z,20.23
2023-03-21T18:05:24.689Z,23.20
2023-03-21T18:08:09.796Z,23.40
2023-03-21T18:10:39.371Z,17.13
2023-03-21T18:13:08.179Z,19.17
2023-03-21T18:15:37.973Z,17.48
2023-03-21T18:18:05.850Z,16.98
2023-03-21T18:23:21.056Z,16.33
2023-03-21T18:25:48.652Z,14.55
2023-03-21T18:28:19.204Z,15.40
2023-03-21T18:33:38.158Z,16.95
2023-03-21T18:36:07.708Z,16.10
2023-03-21T18:38:36.492Z,15.85
2023-03-21T18:41:04.218Z,17.60
2023-03-21T18:46:19.001Z,16.85
2023-03-21T18:48:46.579Z,17.60
2023-03-21T18:51:14.109Z,17.25
2023-03-21T18:53:41.455Z,17.77
2023-03-21T18:56:10.677Z,18.58
2023-03-21T18:58:38.723Z,18.17
2023-03-21T19:01:06.400Z,19.15
2023-03-21T19:03:36.935Z,20.63
2023-03-21T19:06:06.358Z,20.20
2023-03-21T19:08:36.977Z,21.98
2023-03-21T19:11:06.769Z,20.67
2023-03-21T19:13:34.446Z,22.25
2023-03-21T19:16:02.704Z,22.92
2023-03-21T19:18:52.107Z,23.67
2023-03-21T19:21:19.766Z,23.13
2023-03-21T19:26:34.030Z,23.00
2023-03-21T19:29:01.686Z,25.00
2023-03-21T19:31:28.847Z,23.95
2023-03-21T19:33:56.136Z,23.10
2023-03-21T19:36:23.668Z,23.58
2023-03-21T19:38:51.762Z,24.00
2023-03-21T19:41:20.227Z,26.35
2023-03-21T19:43:54.590Z,24.95
2023-03-21T19:46:31.076Z,24.80
2023-03-21T19:49:06.062Z,25.65
2023-03-21T19:51:39.713Z,24.77
2023-03-21T19:54:14.908Z,26.77
2023-03-21T19:56:47.041Z,25.15
2023-03-21T19:59:15.357Z,25.08
2023-03-21T20:01:43.388Z,26.90
2023-03-21T20:04:11.269Z,26.20
2023-03-21T20:06:38.697Z,24.98
2023-03-21T20:09:50.117Z,24.58
2023-03-21T20:11:54.556Z,24.58
2023-03-21T20:14:21.931Z,26.52
2023-03-21T20:16:49.432Z,25.13
2023-03-21T20:19:17.073Z,26.67
2023-03-21T20:21:49.761Z,25.02
2023-03-21T20:24:20.680Z,29.08
2023-03-21T20:26:49.284Z,27.08
2023-03-21T20:30:05.704Z,24.63
2023-03-21T20:32:04.367Z,24.10
2023-03-21T20:34:31.464Z,22.48
2023-03-21T20:36:58.896Z,24.85
2023-03-21T20:39:28.034Z,23.42
2023-03-21T20:41:56.592Z,23.05
2023-03-21T20:47:10.815Z,21.38
2023-03-21T20:49:38.032Z,23.80
2023-03-21T20:52:52.215Z,23.73
2023-03-21T20:54:57.477Z,22.85
2023-03-21T20:57:27.246Z,21.95
2023-03-21T20:59:55.144Z,21.83
2023-03-21T21:02:23.298Z,22.48
2023-03-21T21:05:21.529Z,29.08
2023-03-21T21:07:41.661Z,24.08
2023-03-21T21:10:14.294Z,26.55
2023-03-21T21:12:45.105Z,22.58
2023-03-21T21:15:14.947Z,23.27
2023-03-21T21:20:29.668Z,23.42
2023-03-21T21:22:59.979Z,28.00
2023-03-21T21:25:29.044Z,29.00
2023-03-21T21:27:56.256Z,22.95
2023-03-21T21:30:23.459Z,28.35
2023-03-21T21:32:50.724Z,21.63
2023-03-21T21:35:19.862Z,26.35
2023-03-21T21:37:47.043Z,24.73
2023-03-21T21:40:20.380Z,26.75
2023-03-21T21:42:47.659Z,25.85
2023-03-21T21:45:16.095Z,21.85
2023-03-21T21:47:44.819Z,30.25
2023-03-21T21:50:13.201Z,28.58
2023-03-21T21:52:43.565Z,21.92
2023-03-21T21:55:11.111Z,25.38
2023-03-21T21:57:39.661Z,22.58
2023-03-21T22:00:13.232Z,27.38
2023-03-21T22:02:41.444Z,28.40
2023-03-21T22:05:10.855Z,32.20
2023-03-21T22:07:38.213Z,20.20
2023-03-21T22:10:05.841Z,23.00
2023-03-21T22:12:32.929Z,25.08
2023-03-21T22:15:00.352Z,24.15
2023-03-21T22:17:27.377Z,21.05
2023-03-21T22:20:05.199Z,19.23
2023-03-21T22:22:34.151Z,19.88
2023-03-21T22:25:01.394Z,19.00
2023-03-21T22:27:28.517Z,24.92
2023-03-21T22:29:56.312Z,21.77
2023-03-21T22:32:23.992Z,23.42
2023-03-21T22:34:51.158Z,18.52
2023-03-21T22:37:18.197Z,20.20
2023-03-21T22:39:45.428Z,21.73
2023-03-21T22:42:12.526Z,32.22
2023-03-21T22:44:40.037Z,18.55
2023-03-21T22:47:09.895Z,17.73
2023-03-21T22:49:38.246Z,17.30
2023-03-21T22:52:06.362Z,21.73
2023-03-21T22:54:33.703Z,20.40
2023-03-21T22:57:00.742Z,20.98
2023-03-21T22:59:28.523Z,19.92
2023-03-21T23:01:55.621Z,17.55
2023-03-21T23:04:23.596Z,17.58
2023-03-21T23:06:51.084Z,18.80
2023-03-21T23:09:18.184Z,18.77
2023-03-21T23:11:49.270Z,16.45
2023-03-21T23:14:19.308Z,18.67
2023-03-21T23:16:47.661Z,19.90
2023-03-21T23:19:15.981Z,20.05
2023-03-21T23:21:44.608Z,19.25
2023-03-21T23:24:12.565Z,19.88
2023-03-21T23:26:39.748Z,19.38
2023-03-21T23:29:09.957Z,17.42
2023-03-21T23:31:37.180Z,24.95
2023-03-21T23:34:04.882Z,22.98
2023-03-21T23:36:32.378Z,18.63
2023-03-21T23:38:59.416Z,20.23
2023-03-21T23:41:26.916Z,20.30
2023-03-21T23:43:54.182Z,18.75
2023-03-21T23:46:21.350Z,16.63
2023-03-21T23:48:48.908Z,19.55
2023-03-21T23:51:17.717Z,19.27
2023-03-21T23:53:46.820Z,17.92
2023-03-21T23:56:21.635Z,16.80
2023-03-21T23:58:50.122Z,18.20
